CheckWX is a tool to help pilots better visualize weather data.  It is not intended as a substitute for an official pre-flight weather briefing.

05:21:38 UTC

EHFD METAR
F3-fb-1 Sea
F3-fb-1 Sea, The Netherlands
Current

7 hours ago

EHFD 192225Z AUTO 25018KT 9999 FEW043/// OVC048/// 07/05 Q1014 W///H///
Observed
Feb-19 @ 22:25 UTC
Wind
  • 250° at 18 KTS
Visibility
10,000+ meters
Flight Rules
VFR
Cloud Levels
  • Few at 4,300' AGL
  • Overcast at 4,800' AGL
Temperature
C / 45°F
Dewpoint
C / 41°F
Humidity
87%
Altimeter
29.94" Hg
Pressure
1013.92 hPa
Previous

7 hours ago

EHFD 192155Z AUTO 26019KT 9999 FEW042/// OVC048/// 07/05 Q1014 W///H///
Observed
Feb-19 @ 21:55 UTC
Wind
  • 260° at 19 KTS
Visibility
10,000+ meters
Flight Rules
VFR
Cloud Levels
  • Few at 4,200' AGL
  • Overcast at 4,800' AGL
Temperature
C / 45°F
Dewpoint
C / 41°F
Humidity
87%
Altimeter
29.94" Hg
Pressure
1013.92 hPa
Previous

8 hours ago

EHFD 192125Z AUTO 26019KT 9999 SCT043/// OVC048/// 07/05 Q1014 W///H///
Observed
Feb-19 @ 21:25 UTC
Wind
  • 260° at 19 KTS
Visibility
10,000+ meters
Flight Rules
VFR
Cloud Levels
  • Scattered at 4,300' AGL
  • Overcast at 4,800' AGL
Temperature
C / 45°F
Dewpoint
C / 41°F
Humidity
87%
Altimeter
29.94" Hg
Pressure
1013.92 hPa